Time;durP1;ratioP1;P1;durP2;ratioP2;P2;SDS_P1;SDS_P2;PMS_P1;PMS_P2;Temp;Humidity;BMP_temperature;BMP_pressure;BME280_temperature;BME280_humidity;BME280_pressure;Samples;Min_cycle;Max_cycle;Signal;HPM_P1;HPM_P2
2022/05/03 00:02:13;;;;;;;24.65;18.83;;;11.00;99.90;;;;;;5078069;28;20034;-57
2022/05/03 00:05:03;;;;;;;26.35;18.48;;;10.90;99.90;;;;;;5076547;28;20444;-57
2022/05/03 00:07:42;;;;;;;24.83;17.88;;;10.90;99.90;;;;;;5076672;28;20102;-57
2022/05/03 00:10:27;;;;;;;26.70;18.50;;;10.90;99.90;;;;;;5072732;28;20024;-57
2022/05/03 00:13:01;;;;;;;29.90;19.10;;;10.90;99.90;;;;;;5074931;28;20027;-57
2022/05/03 00:15:31;;;;;;;23.83;18.73;;;10.90;99.90;;;;;;5074639;28;20028;-57
2022/05/03 00:17:57;;;;;;;24.65;18.35;;;10.80;99.90;;;;;;5073035;28;20028;-57
2022/05/03 00:20:24;;;;;;;28.33;19.67;;;10.70;99.90;;;;;;5074443;28;20133;-57
2022/05/03 00:22:50;;;;;;;30.75;20.88;;;10.70;99.90;;;;;;5074508;28;20024;-56
2022/05/03 00:25:16;;;;;;;25.20;19.02;;;10.60;99.90;;;;;;5074476;28;20029;-56
2022/05/03 00:27:43;;;;;;;26.70;19.90;;;10.60;99.90;;;;;;5074568;28;20075;-57
2022/05/03 00:30:09;;;;;;;26.90;19.92;;;10.60;99.90;;;;;;5074350;28;20493;-56
2022/05/03 00:32:35;;;;;;;26.10;19.65;;;10.60;99.90;;;;;;5074344;28;20060;-57
2022/05/03 00:35:02;;;;;;;25.23;19.42;;;10.50;99.90;;;;;;5074289;28;20128;-57
2022/05/03 00:37:28;;;;;;;26.27;19.55;;;10.50;99.90;;;;;;5074270;28;20044;-56
2022/05/03 00:39:54;;;;;;;28.33;19.75;;;10.50;99.90;;;;;;5074266;28;20024;-56
2022/05/03 00:42:35;;;;;;;28.73;21.60;;;10.50;99.90;;;;;;5073899;28;20463;-57
2022/05/03 00:45:07;;;;;;;28.75;19.30;;;10.60;99.90;;;;;;5074158;28;20094;-57
2022/05/03 00:47:41;;;;;;;26.65;19.25;;;10.50;99.90;;;;;;5074051;28;20494;-57
2022/05/03 00:50:29;;;;;;;24.23;18.98;;;10.50;99.90;;;;;;5073868;28;20039;-57
2022/05/03 00:53:01;;;;;;;29.58;19.70;;;10.50;99.90;;;;;;5072334;28;20115;-58
2022/05/03 00:55:42;;;;;;;28.45;19.20;;;10.50;99.90;;;;;;5073506;28;20021;-56
2022/05/03 00:58:54;;;;;;;24.75;18.73;;;10.40;99.90;;;;;;5073797;28;20024;-56
2022/05/03 01:01:34;;;;;;;30.52;19.30;;;10.40;99.90;;;;;;5073751;28;20024;-56
2022/05/03 01:04:09;;;;;;;28.25;19.88;;;10.40;99.90;;;;;;5073846;28;20024;-56
2022/05/03 01:07:13;;;;;;;26.90;19.55;;;10.30;99.90;;;;;;5073910;28;20025;-57
2022/05/03 01:09:43;;;;;;;29.25;20.05;;;10.30;99.90;;;;;;5073256;28;20493;-57
2022/05/03 01:12:32;;;;;;;28.50;19.58;;;10.30;99.90;;;;;;5073706;28;20028;-57
2022/05/03 01:15:25;;;;;;;26.13;19.58;;;10.30;99.90;;;;;;5073426;28;20016;-56
2022/05/03 01:18:26;;;;;;;26.42;18.70;;;10.20;99.90;;;;;;5073346;28;20024;-56
2022/05/03 01:21:16;;;;;;;25.67;18.35;;;10.20;99.90;;;;;;5073014;28;20028;-56
2022/05/03 01:23:49;;;;;;;23.33;18.10;;;10.30;99.90;;;;;;5072233;28;20017;-56
2022/05/03 01:26:43;;;;;;;23.83;18.25;;;10.20;99.90;;;;;;5073403;28;20092;-61
2022/05/03 01:29:19;;;;;;;26.08;18.25;;;10.20;99.90;;;;;;5073215;28;20024;-56
2022/05/03 01:31:46;;;;;;;27.88;18.67;;;10.20;99.90;;;;;;5073797;28;20500;-56
2022/05/03 01:34:17;;;;;;;27.63;18.83;;;10.20;99.90;;;;;;5073622;28;20064;-56
2022/05/03 01:36:45;;;;;;;24.63;18.45;;;10.20;99.90;;;;;;5072938;28;20032;-56
2022/05/03 01:39:38;;;;;;;25.95;18.92;;;10.20;99.90;;;;;;5072581;28;20331;-57
2022/05/03 01:42:13;;;;;;;27.77;19.80;;;10.10;99.90;;;;;;5072703;28;20052;-56
2022/05/03 01:44:40;;;;;;;28.98;19.25;;;10.10;99.90;;;;;;5071197;28;20035;-56
2022/05/03 01:47:24;;;;;;;31.25;20.00;;;10.00;99.90;;;;;;5072600;28;20481;-56
2022/05/03 01:50:20;;;;;;;29.10;20.00;;;10.00;99.90;;;;;;5072091;28;20201;-57
2022/05/03 01:53:07;;;;;;;25.15;19.38;;;10.00;99.90;;;;;;5072924;28;20055;-56
2022/05/03 01:55:52;;;;;;;23.23;18.55;;;10.00;99.90;;;;;;5072567;28;20120;-56
2022/05/03 01:58:54;;;;;;;25.42;18.65;;;10.00;99.90;;;;;;5073039;28;20103;-57
2022/05/03 02:01:55;;;;;;;26.35;19.02;;;9.90;99.90;;;;;;5072401;28;20028;-57
2022/05/03 02:04:37;;;;;;;26.83;19.60;;;9.90;99.90;;;;;;5072389;28;20102;-56
2022/05/03 02:07:11;;;;;;;25.15;18.50;;;9.80;99.90;;;;;;5072568;28;20024;-56
2022/05/03 02:09:58;;;;;;;28.42;19.20;;;9.90;99.90;;;;;;5072368;28;20031;-57
2022/05/03 02:12:25;;;;;;;24.67;19.08;;;9.90;99.90;;;;;;5072858;28;20089;-56
2022/05/03 02:15:15;;;;;;;28.13;20.35;;;9.90;99.90;;;;;;5072798;28;20031;-57
2022/05/03 02:18:03;;;;;;;32.80;22.63;;;9.80;99.90;;;;;;5071981;28;20382;-56
2022/05/03 02:20:46;;;;;;;34.10;22.27;;;9.70;99.90;;;;;;5072065;28;20566;-56
2022/05/03 02:23:15;;;;;;;;;;;9.70;99.90;;;;;;5072960;28;20134;-57
2022/05/03 02:26:08;;;;;;;35.47;22.85;;;9.60;99.90;;;;;;5070172;28;19904;-56
2022/05/03 02:28:48;;;;;;;32.38;23.48;;;9.60;99.90;;;;;;5071743;28;20033;-57
2022/05/03 02:31:41;;;;;;;39.85;26.38;;;9.50;99.90;;;;;;5071944;28;20522;-58
2022/05/03 02:34:24;;;;;;;31.77;23.10;;;9.50;99.90;;;;;;5071907;28;20110;-56
2022/05/03 02:37:22;;;;;;;38.88;23.88;;;9.50;99.90;;;;;;5071128;28;20048;-56
2022/05/03 02:40:07;;;;;;;35.22;23.23;;;9.40;99.90;;;;;;5070290;28;20044;-57
2022/05/03 02:42:34;;;;;;;30.98;22.38;;;9.40;99.90;;;;;;5072277;28;20448;-56
2022/05/03 02:45:01;;;;;;;32.13;21.08;;;9.40;99.90;;;;;;5071922;28;20100;-56
2022/05/03 02:47:40;;;;;;;33.83;23.02;;;9.40;99.90;;;;;;5072211;28;20032;-56
2022/05/03 02:50:13;;;;;;;32.28;22.25;;;9.30;99.90;;;;;;5071841;28;20385;-57
2022/05/03 02:52:54;;;;;;;31.23;22.55;;;9.40;99.90;;;;;;5071956;28;20016;-57
2022/05/03 02:55:50;;;;;;;31.00;22.23;;;9.40;99.90;;;;;;5070417;28;20017;-57
2022/05/03 02:58:28;;;;;;;32.25;21.30;;;9.40;99.90;;;;;;5070113;28;20030;-58
2022/05/03 03:04:03;;;;;;;31.75;20.77;;;9.40;99.90;;;;;;5070162;28;20081;-56
2022/05/03 03:06:38;;;;;;;30.25;20.45;;;9.40;99.90;;;;;;5071444;28;20529;-57
2022/05/03 03:09:06;;;;;;;26.98;21.27;;;9.40;99.90;;;;;;5071460;28;20024;-57
2022/05/03 03:12:09;;;;;;;30.02;21.75;;;9.40;99.90;;;;;;5071267;28;20032;-57
2022/05/03 03:14:42;;;;;;;33.88;22.05;;;9.40;99.90;;;;;;5071356;28;20024;-56
2022/05/03 03:17:09;;;;;;;;;;;9.30;99.90;;;;;;5071030;28;20035;-57
2022/05/03 03:20:04;;;;;;;31.13;21.90;;;9.30;99.90;;;;;;5071708;28;19904;-57
2022/05/03 03:22:50;;;;;;;33.40;22.67;;;9.30;99.90;;;;;;5069187;28;20112;-57
2022/05/03 03:25:21;;;;;;;33.25;22.88;;;9.30;99.90;;;;;;5069423;28;20120;-57
2022/05/03 03:27:49;;;;;;;35.03;24.02;;;9.20;99.90;;;;;;5069652;28;20020;-56
2022/05/03 03:30:16;;;;;;;34.42;24.75;;;9.20;99.90;;;;;;5071199;28;20025;-57
2022/05/03 03:32:50;;;;;;;35.53;25.40;;;9.20;99.90;;;;;;5071275;28;20024;-56
2022/05/03 03:35:16;;;;;;;38.83;26.40;;;9.10;99.90;;;;;;5071085;28;20048;-55
2022/05/03 03:37:44;;;;;;;36.92;26.73;;;9.00;99.90;;;;;;5071456;28;20025;-57
2022/05/03 03:40:11;;;;;;;42.08;26.67;;;9.00;99.90;;;;;;5071890;28;20100;-56
2022/05/03 03:42:37;;;;;;;42.33;27.85;;;9.00;99.90;;;;;;5072228;28;20027;-56
2022/05/03 03:45:08;;;;;;;44.22;27.80;;;9.00;99.90;;;;;;5073634;28;20028;-57
2022/05/03 03:47:35;;;;;;;42.03;29.02;;;8.90;99.90;;;;;;5075515;28;20090;-56
2022/05/03 03:50:01;;;;;;;40.58;28.08;;;8.90;99.90;;;;;;5074936;28;20025;-57
2022/05/03 03:52:28;;;;;;;41.05;28.35;;;8.90;99.90;;;;;;5074670;28;20393;-57
2022/05/03 03:54:56;;;;;;;40.83;29.23;;;8.90;99.90;;;;;;5075376;28;20029;-56
2022/05/03 03:57:24;;;;;;;40.95;29.33;;;8.90;99.90;;;;;;5075402;28;20460;-56
2022/05/03 03:59:50;;;;;;;47.42;31.23;;;8.90;99.90;;;;;;5075062;28;20024;-57
2022/05/03 04:02:16;;;;;;;46.80;32.20;;;8.80;99.90;;;;;;5075214;28;20531;-57
2022/05/03 04:04:43;;;;;;;51.25;33.40;;;8.80;99.90;;;;;;5074537;28;20033;-56
2022/05/03 04:07:09;;;;;;;51.15;33.17;;;8.70;99.90;;;;;;5073622;28;20372;-56
2022/05/03 04:09:35;;;;;;;53.08;33.97;;;8.70;99.90;;;;;;5074875;28;20057;-57
2022/05/03 04:12:03;;;;;;;51.47;34.40;;;8.70;99.90;;;;;;5074965;28;20484;-57
2022/05/03 04:14:29;;;;;;;51.65;34.80;;;8.60;99.90;;;;;;5074629;28;20028;-57
2022/05/03 04:16:55;;;;;;;52.72;34.78;;;8.60;99.90;;;;;;5075356;28;20389;-56
2022/05/03 04:19:21;;;;;;;55.05;34.78;;;8.60;99.90;;;;;;5075122;28;20017;-56
2022/05/03 04:21:47;;;;;;;52.05;36.00;;;8.60;99.90;;;;;;5075318;28;20233;-56
2022/05/03 04:24:13;;;;;;;56.85;36.00;;;8.60;99.90;;;;;;5074959;28;20027;-57
2022/05/03 04:26:39;;;;;;;52.20;34.47;;;8.60;99.90;;;;;;5074922;28;20025;-56
2022/05/03 04:29:05;;;;;;;54.70;35.25;;;8.60;99.90;;;;;;5074566;28;20086;-56
2022/05/03 04:31:33;;;;;;;55.80;35.83;;;8.70;99.90;;;;;;5074890;28;20103;-57
2022/05/03 04:34:00;;;;;;;51.53;33.97;;;8.70;99.90;;;;;;5074466;28;20040;-57
2022/05/03 04:36:26;;;;;;;65.88;37.00;;;8.70;99.90;;;;;;5074393;28;20300;-58
2022/05/03 04:38:52;;;;;;;55.00;36.70;;;8.70;99.90;;;;;;5072860;28;20024;-57
2022/05/03 04:41:23;;;;;;;58.03;37.22;;;8.70;99.90;;;;;;5074907;28;20059;-57
2022/05/03 04:43:49;;;;;;;60.47;37.05;;;8.80;99.90;;;;;;5073756;28;20035;-56
2022/05/03 04:46:15;;;;;;;58.60;37.13;;;8.70;99.90;;;;;;5071580;28;20099;-56
2022/05/03 04:48:41;;;;;;;58.45;38.50;;;8.70;99.90;;;;;;5055311;28;20120;-56
2022/05/03 04:51:15;;;;;;;59.38;36.22;;;8.70;99.90;;;;;;5073112;28;20024;-56
2022/05/03 04:53:40;;;;;;;53.35;35.45;;;8.80;99.90;;;;;;5073160;28;20021;-56
2022/05/03 04:56:06;;;;;;;55.42;35.97;;;8.80;99.90;;;;;;5072577;28;20591;-56
2022/05/03 04:58:31;;;;;;;56.30;35.67;;;8.90;99.90;;;;;;5073212;28;20039;-56
2022/05/03 05:00:57;;;;;;;54.90;34.60;;;9.00;99.90;;;;;;5073307;28;20025;-56
2022/05/03 05:03:22;;;;;;;54.95;35.22;;;9.00;99.90;;;;;;5072665;28;20111;-56
2022/05/03 05:05:48;;;;;;;61.05;35.97;;;9.00;99.90;;;;;;5072583;28;20028;-56
2022/05/03 05:08:14;;;;;;;55.03;36.50;;;9.00;99.90;;;;;;5073152;28;20126;-56
2022/05/03 05:10:39;;;;;;;59.85;36.53;;;9.00;99.90;;;;;;5073016;28;20473;-56
2022/05/03 05:13:05;;;;;;;59.97;37.35;;;9.10;99.90;;;;;;5072302;28;20055;-56
2022/05/03 05:15:30;;;;;;;57.75;36.50;;;9.10;99.90;;;;;;5073008;28;20405;-56
2022/05/03 05:17:58;;;;;;;66.15;37.60;;;9.10;99.90;;;;;;5072683;28;20032;-56
2022/05/03 05:20:25;;;;;;;56.42;37.10;;;9.20;99.90;;;;;;5072586;28;20583;-56
2022/05/03 05:22:51;;;;;;;58.78;36.42;;;9.30;99.90;;;;;;5071025;28;20124;-56
2022/05/03 05:25:17;;;;;;;57.83;35.92;;;9.40;99.90;;;;;;5072878;28;20543;-56
2022/05/03 05:27:43;;;;;;;51.50;33.70;;;9.40;99.90;;;;;;5072411;28;20032;-56
2022/05/03 05:30:09;;;;;;;56.35;35.83;;;9.40;99.90;;;;;;5072027;28;20031;-56
2022/05/03 05:32:36;;;;;;;55.97;35.90;;;9.40;99.90;;;;;;5072418;28;20017;-56
2022/05/03 05:35:04;;;;;;;57.40;35.80;;;9.50;99.90;;;;;;5071867;28;20093;-56
2022/05/03 05:37:30;;;;;;;55.03;34.58;;;9.60;99.90;;;;;;5072386;28;20021;-56
2022/05/03 05:39:56;;;;;;;55.67;35.15;;;9.60;99.90;;;;;;5070247;28;20020;-56
2022/05/03 05:42:21;;;;;;;49.45;33.47;;;9.60;99.90;;;;;;5072254;28;20078;-56
2022/05/03 05:44:47;;;;;;;51.92;34.47;;;9.70;99.90;;;;;;5072508;28;20024;-56
2022/05/03 05:47:13;;;;;;;54.70;33.88;;;9.70;99.90;;;;;;5071405;28;20024;-57
2022/05/03 05:49:39;;;;;;;51.90;33.00;;;9.90;99.90;;;;;;5071427;28;20024;-56
2022/05/03 05:54:49;;;;;;;47.45;31.92;;;10.00;99.90;;;;;;5070027;28;20427;-56
2022/05/03 05:57:15;;;;;;;65.90;34.50;;;10.10;99.90;;;;;;5070558;28;20103;-56
2022/05/03 05:59:41;;;;;;;51.58;34.17;;;10.20;99.90;;;;;;5070291;28;20017;-57
2022/05/03 06:02:07;;;;;;;46.35;32.20;;;10.30;99.90;;;;;;5067148;28;20029;-57
2022/05/03 06:04:33;;;;;;;54.17;31.33;;;10.30;99.90;;;;;;5067569;28;20032;-57
2022/05/03 06:06:59;;;;;;;44.33;30.55;;;10.40;99.90;;;;;;5063656;28;20024;-57
2022/05/03 06:09:24;;;;;;;50.45;31.02;;;10.60;99.90;;;;;;5060078;28;20671;-57
2022/05/03 06:11:50;;;;;;;45.67;29.45;;;10.60;99.90;;;;;;5059044;28;20032;-57
2022/05/03 06:14:16;;;;;;;45.55;30.80;;;10.60;99.90;;;;;;5053556;28;20025;-57
2022/05/03 06:16:52;;;;;;;51.17;28.65;;;10.60;99.90;;;;;;5058956;28;20162;-56
2022/05/03 06:19:18;;;;;;;46.50;28.85;;;10.70;99.90;;;;;;5054266;28;20074;-57
2022/05/03 06:21:43;;;;;;;45.72;29.00;;;10.80;99.90;;;;;;5059870;28;20534;-55
2022/05/03 06:24:09;;;;;;;49.97;28.95;;;11.00;99.90;;;;;;5059268;28;20085;-58
2022/05/03 06:26:35;;;;;;;49.30;26.08;;;11.30;99.90;;;;;;5050926;28;20071;-57
2022/05/03 06:29:06;;;;;;;48.40;24.95;;;11.60;99.90;;;;;;5045804;28;20390;-57
2022/05/03 06:31:33;;;;;;;36.83;23.48;;;11.80;99.90;;;;;;5053269;28;20766;-57
2022/05/03 06:34:00;;;;;;;32.20;23.38;;;11.80;99.90;;;;;;5039498;28;20102;-57
2022/05/03 06:36:25;;;;;;;30.98;22.05;;;11.80;99.90;;;;;;5055095;28;20370;-57
2022/05/03 06:38:51;;;;;;;32.65;22.65;;;11.80;99.90;;;;;;5058049;28;20098;-57
2022/05/03 06:41:17;;;;;;;29.35;21.02;;;11.80;99.90;;;;;;5056250;28;20166;-57
2022/05/03 06:43:43;;;;;;;29.52;22.27;;;11.80;99.90;;;;;;5053922;28;20029;-57
2022/05/03 06:46:09;;;;;;;30.10;20.80;;;12.00;99.90;;;;;;5056023;28;20090;-57
2022/05/03 06:48:34;;;;;;;33.55;20.42;;;12.20;99.90;;;;;;5048863;28;20665;-56
2022/05/03 06:51:00;;;;;;;29.85;20.45;;;12.50;99.90;;;;;;5056752;28;20502;-56
2022/05/03 06:53:26;;;;;;;28.20;19.75;;;12.70;99.90;;;;;;5047162;28;20081;-57
2022/05/03 06:55:51;;;;;;;28.90;17.88;;;12.80;99.90;;;;;;5055381;28;20107;-56
2022/05/03 06:58:17;;;;;;;26.17;17.48;;;12.90;99.90;;;;;;5051069;28;20094;-58
2022/05/03 07:00:42;;;;;;;24.30;17.05;;;12.90;99.90;;;;;;5051826;28;20032;-57
2022/05/03 07:03:08;;;;;;;26.45;16.73;;;12.80;99.90;;;;;;5056309;28;20048;-57
2022/05/03 07:05:34;;;;;;;31.17;17.35;;;13.80;99.90;;;;;;5058218;28;20113;-57
2022/05/03 07:08:00;;;;;;;24.63;17.70;;;15.40;99.90;;;;;;5059953;28;20036;-58
2022/05/03 07:10:26;;;;;;;24.05;17.20;;;16.40;99.50;;;;;;5051012;28;20066;-58
2022/05/03 07:12:52;;;;;;;23.75;17.52;;;17.70;96.80;;;;;;5058639;28;20507;-59
2022/05/03 07:15:21;;;;;;;24.42;17.85;;;18.70;93.80;;;;;;5057190;28;20033;-59
2022/05/03 07:23:16;;;;;;;19.38;16.65;;;20.30;90.10;;;;;;5061439;28;20093;-59
2022/05/03 07:25:44;;;;;;;24.38;15.63;;;20.30;86.80;;;;;;5065150;28;20029;-58
2022/05/03 07:28:10;;;;;;;19.05;15.80;;;20.30;85.10;;;;;;5064790;28;20074;-58
2022/05/03 07:30:36;;;;;;;20.42;16.45;;;20.80;83.60;;;;;;5058045;28;20029;-58
2022/05/03 07:33:02;;;;;;;21.90;16.60;;;20.90;82.70;;;;;;5064042;28;20020;-58
2022/05/03 07:35:28;;;;;;;18.42;15.45;;;21.60;80.50;;;;;;5061377;28;21717;-59
2022/05/03 07:37:54;;;;;;;19.95;15.50;;;21.70;80.20;;;;;;5065473;28;20089;-59
2022/05/03 07:40:20;;;;;;;18.63;15.68;;;22.10;79.20;;;;;;5061316;28;20050;-59
2022/05/03 07:42:46;;;;;;;14.55;12.75;;;22.80;76.60;;;;;;5063363;28;20035;-59
2022/05/03 07:45:12;;;;;;;18.45;13.70;;;22.80;74.50;;;;;;5065026;28;20048;-59
2022/05/03 07:47:38;;;;;;;19.33;13.05;;;23.00;72.90;;;;;;5066299;28;20460;-59
2022/05/03 07:50:05;;;;;;;15.10;12.50;;;22.90;71.90;;;;;;5059570;28;20032;-59
2022/05/03 07:52:31;;;;;;;19.65;13.70;;;22.80;72.50;;;;;;5059463;28;20055;-59
2022/05/03 07:54:57;;;;;;;16.23;12.73;;;23.00;72.50;;;;;;5064578;28;20056;-59
2022/05/03 07:57:24;;;;;;;17.02;13.43;;;22.30;72.60;;;;;;5064666;28;20027;-59
2022/05/03 07:59:54;;;;;;;15.00;12.90;;;22.00;73.30;;;;;;5064621;28;20086;-59
2022/05/03 08:02:21;;;;;;;18.48;13.52;;;23.00;71.90;;;;;;5059383;28;20182;-59
2022/05/03 08:04:48;;;;;;;16.35;14.18;;;23.00;71.40;;;;;;5056691;28;20575;-59
2022/05/03 08:07:14;;;;;;;15.98;13.75;;;22.90;72.20;;;;;;5052038;28;20708;-59
2022/05/03 08:09:39;;;;;;;19.65;14.23;;;22.70;72.70;;;;;;5060135;28;20041;-59
2022/05/03 08:12:06;;;;;;;20.70;14.63;;;22.60;72.60;;;;;;5054274;28;20021;-59
2022/05/03 08:14:32;;;;;;;21.73;15.23;;;22.00;74.00;;;;;;5055281;28;20020;-58
2022/05/03 08:16:58;;;;;;;19.33;14.65;;;22.20;75.10;;;;;;5051776;28;20088;-59
2022/05/03 08:19:24;;;;;;;23.33;14.80;;;22.90;73.50;;;;;;5060349;28;20174;-59
2022/05/03 08:21:52;;;;;;;26.48;15.60;;;23.00;73.20;;;;;;5040737;28;20032;-59
2022/05/03 08:24:19;;;;;;;19.35;13.63;;;22.40;73.60;;;;;;5043234;28;20576;-59
2022/05/03 08:26:45;;;;;;;15.60;13.27;;;23.20;72.40;;;;;;5050607;28;20028;-59
2022/05/03 08:29:10;;;;;;;14.43;12.65;;;23.20;70.70;;;;;;5045379;28;20037;-59
2022/05/03 08:31:36;;;;;;;14.93;12.57;;;22.70;71.40;;;;;;5041768;28;20046;-59
2022/05/03 08:34:02;;;;;;;15.70;11.90;;;22.50;71.20;;;;;;5051742;28;20049;-59
2022/05/03 08:36:29;;;;;;;14.32;11.88;;;23.20;71.00;;;;;;5046957;28;20073;-59
2022/05/03 08:42:21;;;;;;;15.13;12.30;;;23.40;68.20;;;;;;5054105;28;20567;-59
2022/05/03 08:44:29;;;;;;;13.45;11.70;;;22.60;70.00;;;;;;5052533;28;20052;-59
2022/05/03 08:46:56;;;;;;;13.80;12.30;;;22.30;71.40;;;;;;5055335;28;20037;-59
2022/05/03 08:49:24;;;;;;;14.10;12.25;;;22.70;69.90;;;;;;5054500;28;20036;-59
2022/05/03 08:51:52;;;;;;;14.68;12.35;;;22.70;69.70;;;;;;5055968;28;20044;-59
2022/05/03 08:54:20;;;;;;;13.63;11.80;;;23.00;69.70;;;;;;5055031;28;20040;-59
2022/05/03 08:56:47;;;;;;;16.05;11.98;;;23.40;68.50;;;;;;5054069;28;20036;-59
2022/05/03 08:59:13;;;;;;;15.35;11.77;;;23.10;69.20;;;;;;5054886;28;20036;-59
2022/05/03 09:01:39;;;;;;;13.57;12.15;;;22.90;68.90;;;;;;5055528;28;20207;-59
2022/05/03 09:04:06;;;;;;;12.90;11.50;;;23.30;68.80;;;;;;5056479;28;20405;-58
2022/05/03 09:06:46;;;;;;;13.73;12.20;;;23.20;68.70;;;;;;5052865;28;20131;-59
2022/05/03 09:09:13;;;;;;;14.73;12.32;;;23.30;68.80;;;;;;5053512;28;20039;-59
2022/05/03 09:11:57;;;;;;;14.10;12.63;;;23.50;68.00;;;;;;5053823;28;20050;-59
2022/05/03 09:14:39;;;;;;;18.38;12.35;;;24.30;67.80;;;;;;5048854;28;20120;-59
2022/05/03 09:17:05;;;;;;;14.23;12.48;;;24.70;66.30;;;;;;5055224;28;20039;-59
2022/05/03 09:19:32;;;;;;;15.57;12.00;;;25.20;65.90;;;;;;5054787;28;20119;-59
2022/05/03 09:24:58;;;;;;;14.93;11.38;;;24.10;67.80;;;;;;5054790;28;20056;-59
2022/05/03 09:27:25;;;;;;;14.45;11.80;;;23.90;68.10;;;;;;5053072;28;20072;-59
2022/05/03 09:30:10;;;;;;;11.30;10.20;;;24.20;67.70;;;;;;5050791;28;20043;-59
2022/05/03 09:32:41;;;;;;;10.73;9.63;;;24.40;67.30;;;;;;5052216;28;20039;-59
2022/05/03 09:35:30;;;;;;;12.03;10.10;;;24.10;67.80;;;;;;5050882;28;20394;-59
2022/05/03 09:37:57;;;;;;;13.30;10.48;;;23.70;67.80;;;;;;5054298;28;20565;-59
2022/05/03 09:40:22;;;;;;;11.88;10.32;;;23.80;68.70;;;;;;5050019;28;20115;-59
2022/05/03 09:42:54;;;;;;;12.38;10.15;;;23.90;68.30;;;;;;5052437;28;20029;-59
2022/05/03 09:45:23;;;;;;;11.90;9.68;;;24.30;67.20;;;;;;5049944;28;20032;-59
2022/05/03 09:47:56;;;;;;;13.50;9.55;;;24.50;66.80;;;;;;5051233;28;20051;-59
2022/05/03 09:50:44;;;;;;;8.70;7.90;;;23.80;67.40;;;;;;5051213;28;20040;-59
2022/05/03 09:53:11;;;;;;;9.00;7.95;;;24.60;66.80;;;;;;5052592;28;20115;-59
2022/05/03 09:55:39;;;;;;;13.00;9.07;;;24.20;67.10;;;;;;5052145;28;20048;-59
2022/05/03 09:58:07;;;;;;;11.32;8.40;;;23.20;69.20;;;;;;5053038;28;20448;-59
2022/05/03 10:00:35;;;;;;;9.95;8.15;;;22.70;70.00;;;;;;5051808;28;20222;-59
2022/05/03 10:03:02;;;;;;;10.18;8.40;;;23.10;69.50;;;;;;5053028;28;21097;-58
2022/05/03 10:05:28;;;;;;;10.45;9.18;;;22.80;69.10;;;;;;5051246;28;20638;-58
2022/05/03 10:07:54;;;;;;;14.15;9.23;;;23.10;69.30;;;;;;5050059;28;20020;-58
2022/05/03 10:10:22;;;;;;;10.23;8.57;;;23.50;68.70;;;;;;5049143;28;20032;-58
2022/05/03 10:12:50;;;;;;;9.90;7.20;;;23.40;68.10;;;;;;5054893;28;20028;-59
2022/05/03 10:21:24;;;;;;;21.90;8.82;;;24.60;66.40;;;;;;5058527;28;20040;-60
2022/05/03 10:24:02;;;;;;;15.00;8.80;;;24.10;66.90;;;;;;5058092;28;20028;-60
2022/05/03 10:26:54;;;;;;;12.25;7.15;;;23.60;68.10;;;;;;5057593;28;20037;-60
2022/05/03 10:29:22;;;;;;;13.52;6.88;;;23.60;68.10;;;;;;5054495;28;20406;-59
2022/05/03 10:32:03;;;;;;;9.35;6.22;;;23.20;69.10;;;;;;5057165;28;20056;-58
2022/05/03 10:34:51;;;;;;;14.90;6.35;;;23.60;68.50;;;;;;5060824;28;20044;-60
2022/05/03 10:37:46;;;;;;;11.38;6.22;;;24.50;66.40;;;;;;5061271;28;20067;-61
2022/05/03 10:40:13;;;;;;;10.63;5.70;;;24.50;65.90;;;;;;5047139;28;20044;-58
2022/05/03 10:42:40;;;;;;;20.27;7.55;;;23.60;67.90;;;;;;5056673;28;20970;-59
2022/05/03 10:45:10;;;;;;;11.13;6.30;;;22.90;69.00;;;;;;5054831;28;20058;-58
2022/05/03 10:47:50;;;;;;;23.08;6.38;;;22.50;69.20;;;;;;5060106;28;20033;-58
2022/05/03 10:50:19;;;;;;;10.10;6.82;;;21.80;71.10;;;;;;5045785;28;20033;-59
2022/05/03 10:52:59;;;;;;;11.48;8.20;;;22.50;71.30;;;;;;5050265;28;20602;-59
2022/05/03 10:55:32;;;;;;;14.82;7.50;;;23.80;68.80;;;;;;5049691;28;20039;-59
2022/05/03 10:58:20;;;;;;;7.88;5.78;;;24.50;67.70;;;;;;5053050;28;20020;-60
2022/05/03 11:01:10;;;;;;;11.20;7.60;;;24.00;66.40;;;;;;5059108;28;20028;-59
2022/05/03 11:03:48;;;;;;;13.32;8.18;;;22.90;68.70;;;;;;5050696;28;20037;-59
2022/05/03 11:06:19;;;;;;;11.60;8.40;;;22.60;69.50;;;;;;5049442;28;20036;-59
2022/05/03 11:08:58;;;;;;;14.68;8.30;;;23.30;69.30;;;;;;5048884;28;20115;-58
2022/05/03 11:11:42;;;;;;;9.15;8.13;;;23.70;67.50;;;;;;5057030;28;20021;-59
2022/05/03 11:14:20;;;;;;;11.40;8.00;;;24.60;66.40;;;;;;5056195;28;20084;-54
2022/05/03 11:17:05;;;;;;;8.30;6.80;;;24.70;64.80;;;;;;5058058;28;20116;-53
2022/05/03 11:19:59;;;;;;;7.55;6.53;;;25.50;62.90;;;;;;5042755;28;20028;-53
2022/05/03 11:22:32;;;;;;;10.18;7.20;;;26.00;62.30;;;;;;5048692;28;20637;-53
2022/05/03 11:24:59;;;;;;;8.55;6.25;;;26.20;61.50;;;;;;5053853;28;20377;-53
2022/05/03 11:27:26;;;;;;;8.48;6.60;;;26.10;60.90;;;;;;5050879;28;20481;-53
2022/05/03 11:29:59;;;;;;;10.30;6.35;;;26.20;61.20;;;;;;5045178;28;20029;-53
2022/05/03 11:32:32;;;;;;;7.88;7.03;;;25.70;59.40;;;;;;5050861;28;20032;-52
2022/05/03 11:35:09;;;;;;;7.80;6.93;;;24.40;61.40;;;;;;5048495;28;20076;-53
2022/05/03 11:37:36;;;;;;;9.45;6.85;;;23.50;65.40;;;;;;5048841;28;20524;-53
2022/05/03 11:40:11;;;;;;;10.02;7.03;;;24.60;65.10;;;;;;5039217;28;20036;-53
2022/05/03 11:42:38;;;;;;;6.60;6.00;;;25.10;61.40;;;;;;5046796;28;20059;-53
2022/05/03 11:45:05;;;;;;;8.15;6.10;;;24.80;61.70;;;;;;5065053;28;20242;-53
2022/05/03 11:47:35;;;;;;;10.68;6.45;;;24.10;64.40;;;;;;5042312;28;20349;-53
2022/05/03 11:50:02;;;;;;;10.50;7.10;;;22.90;65.70;;;;;;5050091;28;20052;-53
2022/05/03 11:57:56;;;;;;;9.50;6.82;;;21.20;71.20;;;;;;5056265;28;20681;-52
2022/05/03 12:00:21;;;;;;;11.18;7.00;;;21.00;72.50;;;;;;5051947;28;20021;-50
2022/05/03 12:02:47;;;;;;;13.13;7.20;;;20.70;73.90;;;;;;5053262;28;20691;-50
2022/05/03 12:05:18;;;;;;;14.32;6.97;;;20.90;73.40;;;;;;5062315;28;20296;-52
2022/05/03 12:07:48;;;;;;;12.82;6.22;;;21.40;72.80;;;;;;5054652;28;21177;-53
2022/05/03 12:10:20;;;;;;;16.83;5.45;;;22.30;70.60;;;;;;5058817;28;20113;-53
2022/05/03 12:13:14;;;;;;;16.67;5.60;;;22.90;67.90;;;;;;5060281;28;20078;-53
2022/05/03 12:15:47;;;;;;;9.43;6.32;;;22.70;67.60;;;;;;5057486;28;20167;-53
2022/05/03 12:18:19;;;;;;;7.65;6.05;;;21.90;68.00;;;;;;5053525;28;20112;-52
2022/05/03 12:20:55;;;;;;;8.07;6.05;;;21.30;69.80;;;;;;5044405;28;20037;-52
2022/05/03 12:23:22;;;;;;;8.13;6.45;;;21.70;69.80;;;;;;5048486;28;20028;-53
2022/05/03 12:25:54;;;;;;;12.20;6.20;;;22.50;66.90;;;;;;5051016;28;20025;-53
2022/05/03 12:28:20;;;;;;;;;;;23.20;65.50;;;;;;5062456;28;20029;-53
2022/05/03 12:30:56;;;;;;;6.65;5.50;;;24.10;64.20;;;;;;5059067;28;20004;-53
2022/05/03 12:33:25;;;;;;;8.20;6.53;;;23.70;63.90;;;;;;5060417;28;21275;-53
2022/05/03 12:35:51;;;;;;;10.38;6.82;;;23.20;66.30;;;;;;5055615;28;20048;-53
2022/05/03 12:38:18;;;;;;;8.65;7.75;;;23.50;67.30;;;;;;5065592;28;20020;-53
2022/05/03 12:40:58;;;;;;;9.30;7.57;;;24.50;66.00;;;;;;5053920;28;20219;-53
2022/05/03 12:43:29;;;;;;;11.35;8.25;;;24.50;64.60;;;;;;5054890;28;20029;-53
2022/05/03 12:46:03;;;;;;;12.25;8.05;;;23.50;67.30;;;;;;5046721;28;20872;-52
2022/05/03 12:48:31;;;;;;;10.98;8.20;;;22.90;69.30;;;;;;5047901;28;20028;-53
2022/05/03 12:50:57;;;;;;;9.60;8.50;;;22.10;71.00;;;;;;5053115;28;20120;-52
2022/05/03 12:53:34;;;;;;;10.52;9.38;;;21.10;72.80;;;;;;5059849;28;20070;-51
2022/05/03 12:58:21;;;;;;;11.27;9.30;;;20.70;74.30;;;;;;5061197;28;20029;-51
2022/05/03 12:58:46;;;;;;;10.75;9.00;;;20.60;75.40;;;;;;5059205;28;20044;-52
2022/05/03 13:01:12;;;;;;;12.05;9.88;;;20.70;74.70;;;;;;5062667;28;20036;-52
2022/05/03 13:03:39;;;;;;;16.95;10.13;;;20.90;75.40;;;;;;5056798;28;20091;-51
2022/05/03 13:06:04;;;;;;;20.60;11.02;;;20.80;76.20;;;;;;5051836;28;20541;-52
2022/05/03 13:08:30;;;;;;;22.83;11.02;;;20.70;77.50;;;;;;5061404;28;20028;-51
2022/05/03 13:10:57;;;;;;;19.75;11.68;;;20.70;77.80;;;;;;5057441;28;20029;-52
2022/05/03 13:13:24;;;;;;;30.52;11.52;;;20.60;78.00;;;;;;5060845;28;20047;-51
2022/05/03 13:15:50;;;;;;;14.25;10.15;;;20.50;77.50;;;;;;5060413;28;20059;-51
2022/05/03 13:18:15;;;;;;;16.75;10.75;;;20.50;77.50;;;;;;5060561;28;20074;-51
2022/05/03 13:20:41;;;;;;;16.42;10.75;;;20.60;76.70;;;;;;5070198;28;20025;-52
2022/05/03 13:23:07;;;;;;;13.63;10.07;;;20.90;77.00;;;;;;5064891;28;20024;-51
2022/05/03 13:25:32;;;;;;;13.93;9.55;;;20.80;77.00;;;;;;5069204;28;20032;-51